Time;durP1;ratioP1;P1;durP2;ratioP2;P2;SDS_P1;SDS_P2;PMS_P1;PMS_P2;Temp;Humidity;BMP_temperature;BMP_pressure;BME280_temperature;BME280_humidity;BME280_pressure;Samples;Min_cycle;Max_cycle;Signal;HPM_P1;HPM_P2
2023/07/17 00:00:48;;;;;;;9.82;2.13;;;16.30;99.90;;;;;;5071397;28;20053;-57
2023/07/17 00:03:13;;;;;;;12.10;2.78;;;16.30;99.90;;;;;;5071737;28;20434;-57
2023/07/17 00:05:39;;;;;;;10.07;2.22;;;16.30;99.90;;;;;;5071593;28;20494;-57
2023/07/17 00:08:06;;;;;;;10.75;2.78;;;16.30;99.90;;;;;;5071416;28;20033;-57
2023/07/17 00:10:31;;;;;;;10.23;2.35;;;16.30;99.90;;;;;;5057548;28;20036;-57
2023/07/17 00:12:57;;;;;;;12.85;2.45;;;16.30;99.90;;;;;;5071642;28;20158;-56
2023/07/17 00:15:23;;;;;;;13.98;3.17;;;16.30;99.90;;;;;;5072826;28;20119;-57
2023/07/17 00:17:48;;;;;;;11.45;2.38;;;16.30;99.90;;;;;;5075300;28;20040;-57
2023/07/17 00:20:14;;;;;;;14.07;2.90;;;16.30;99.90;;;;;;5075508;28;20039;-57
2023/07/17 00:22:40;;;;;;;12.57;2.70;;;16.30;99.90;;;;;;5075377;28;20033;-57
2023/07/17 00:25:06;;;;;;;13.70;2.72;;;16.30;99.90;;;;;;5075270;28;20033;-57
2023/07/17 00:27:35;;;;;;;15.80;2.95;;;16.30;99.90;;;;;;5075414;28;20043;-57
2023/07/17 00:30:00;;;;;;;9.27;2.58;;;16.40;99.90;;;;;;5074955;28;20040;-57
2023/07/17 00:32:26;;;;;;;10.00;2.83;;;16.40;99.90;;;;;;5074835;28;20086;-57
2023/07/17 00:34:52;;;;;;;11.65;3.28;;;16.40;99.90;;;;;;5075194;28;20036;-57
2023/07/17 00:37:17;;;;;;;10.82;3.08;;;16.40;99.90;;;;;;5075180;28;20076;-57
2023/07/17 00:39:43;;;;;;;10.57;2.88;;;16.40;99.90;;;;;;5075011;28;20051;-56
2023/07/17 00:42:08;;;;;;;8.38;2.50;;;16.40;99.90;;;;;;5074540;28;20028;-56
2023/07/17 00:44:38;;;;;;;12.40;3.83;;;16.40;99.90;;;;;;5074702;28;20037;-56
2023/07/17 00:47:05;;;;;;;12.32;3.08;;;16.40;99.90;;;;;;5074549;28;20447;-56
2023/07/17 00:49:31;;;;;;;14.18;3.33;;;16.40;99.90;;;;;;5074800;28;20111;-56
2023/07/17 00:51:58;;;;;;;12.55;3.58;;;16.40;99.90;;;;;;5073225;28;20124;-57
2023/07/17 00:54:26;;;;;;;11.80;3.15;;;16.40;99.90;;;;;;5074695;28;20029;-56
2023/07/17 00:56:53;;;;;;;4.90;2.33;;;16.30;99.90;;;;;;5074654;28;20042;-56
2023/07/17 00:59:19;;;;;;;12.35;3.10;;;16.30;99.90;;;;;;5073968;28;20045;-55
2023/07/17 01:01:46;;;;;;;8.90;2.70;;;16.30;99.90;;;;;;5074606;28;20437;-56
2023/07/17 01:04:12;;;;;;;4.13;2.08;;;16.20;99.90;;;;;;5074743;28;20075;-56
2023/07/17 01:06:39;;;;;;;8.75;2.28;;;16.20;99.90;;;;;;5074421;28;20048;-56
2023/07/17 01:09:06;;;;;;;6.80;1.98;;;16.10;99.90;;;;;;5071425;28;20064;-56
2023/07/17 01:11:32;;;;;;;8.07;2.47;;;16.00;99.90;;;;;;5063818;28;20469;-56
2023/07/17 01:13:59;;;;;;;12.02;2.50;;;16.00;99.90;;;;;;5074520;28;20486;-56
2023/07/17 01:16:25;;;;;;;6.65;2.35;;;16.00;99.90;;;;;;5074483;28;20067;-56
2023/07/17 01:18:51;;;;;;;5.82;1.80;;;15.90;99.90;;;;;;5073140;28;20490;-56
2023/07/17 01:21:19;;;;;;;3.72;1.90;;;15.90;99.90;;;;;;5073811;28;20060;-56
2023/07/17 01:23:45;;;;;;;4.10;1.90;;;15.90;99.90;;;;;;5074064;28;20501;-56
2023/07/17 01:26:11;;;;;;;7.53;2.35;;;15.90;99.90;;;;;;5073563;28;20040;-56
2023/07/17 01:28:37;;;;;;;9.88;2.53;;;15.80;99.90;;;;;;5073291;28;20052;-56
2023/07/17 01:31:03;;;;;;;7.43;2.67;;;15.80;99.90;;;;;;5074103;28;20475;-56
2023/07/17 01:33:29;;;;;;;8.63;2.33;;;15.80;99.90;;;;;;5073900;28;20079;-56
2023/07/17 01:35:54;;;;;;;5.35;2.25;;;15.80;99.90;;;;;;5073385;28;20111;-57
2023/07/17 01:38:20;;;;;;;7.95;2.28;;;15.70;99.90;;;;;;5065389;28;20090;-56
2023/07/17 01:40:45;;;;;;;5.20;2.00;;;15.70;99.90;;;;;;5070437;28;20641;-56
2023/07/17 01:43:11;;;;;;;5.40;2.25;;;15.70;99.90;;;;;;5067595;28;20208;-56
2023/07/17 01:45:37;;;;;;;8.57;2.00;;;15.70;99.90;;;;;;5058281;28;20033;-56
2023/07/17 01:48:02;;;;;;;6.80;2.40;;;15.70;99.90;;;;;;5062954;28;20040;-57
2023/07/17 01:50:28;;;;;;;6.93;2.00;;;15.70;99.90;;;;;;5070045;28;20036;-56
2023/07/17 01:52:54;;;;;;;5.60;2.15;;;15.60;99.90;;;;;;5073690;28;20040;-56
2023/07/17 01:55:19;;;;;;;9.88;2.40;;;15.70;99.90;;;;;;5072897;28;20039;-56
2023/07/17 01:57:45;;;;;;;7.05;2.30;;;15.60;99.90;;;;;;5053466;28;20029;-56
2023/07/17 02:00:12;;;;;;;9.23;2.60;;;15.70;99.90;;;;;;5053344;28;20053;-56
2023/07/17 02:02:38;;;;;;;6.68;2.40;;;15.60;99.90;;;;;;5058697;28;20055;-57
2023/07/17 02:05:04;;;;;;;6.68;2.50;;;15.60;99.90;;;;;;5073320;28;20432;-56
2023/07/17 02:07:30;;;;;;;14.25;3.40;;;15.60;99.90;;;;;;5073053;28;20076;-56
2023/07/17 02:09:55;;;;;;;6.60;2.50;;;15.60;99.90;;;;;;5071733;28;20044;-56
2023/07/17 02:12:21;;;;;;;9.52;2.33;;;15.60;99.90;;;;;;5073202;28;20040;-56
2023/07/17 02:14:47;;;;;;;16.05;3.00;;;15.60;99.90;;;;;;5070682;28;20033;-56
2023/07/17 02:17:12;;;;;;;8.45;2.95;;;15.60;99.90;;;;;;5073319;28;20040;-56
2023/07/17 02:19:38;;;;;;;6.03;2.40;;;15.60;99.90;;;;;;5073047;28;20059;-57
2023/07/17 02:22:04;;;;;;;8.30;2.22;;;15.50;99.90;;;;;;5073489;28;20373;-56
2023/07/17 02:24:30;;;;;;;10.95;2.70;;;15.50;99.90;;;;;;5072968;28;20047;-56
2023/07/17 02:26:58;;;;;;;7.00;2.25;;;15.40;99.90;;;;;;5072522;28;20402;-56
2023/07/17 02:29:24;;;;;;;8.80;2.75;;;15.50;99.90;;;;;;5072947;28;20040;-56
2023/07/17 02:31:50;;;;;;;9.02;2.53;;;15.40;99.90;;;;;;5072385;28;20044;-56
2023/07/17 02:34:16;;;;;;;8.35;2.55;;;15.40;99.90;;;;;;5072486;28;20040;-56
2023/07/17 02:36:42;;;;;;;7.07;2.55;;;15.40;99.90;;;;;;5072512;28;20495;-56
2023/07/17 02:39:08;;;;;;;8.60;2.88;;;15.40;99.90;;;;;;5072100;28;20070;-56
2023/07/17 02:41:34;;;;;;;6.93;2.35;;;15.30;99.90;;;;;;5072407;28;20053;-56
2023/07/17 02:44:00;;;;;;;8.02;2.53;;;15.30;99.90;;;;;;5072736;28;20153;-56
2023/07/17 02:46:26;;;;;;;9.10;2.70;;;15.30;99.90;;;;;;5072457;28;20495;-56
2023/07/17 02:48:52;;;;;;;6.40;2.80;;;15.30;99.90;;;;;;5072552;28;20045;-56
2023/07/17 02:51:17;;;;;;;10.82;3.20;;;15.30;99.90;;;;;;5072288;28;20036;-56
2023/07/17 02:53:43;;;;;;;8.60;2.63;;;15.30;99.90;;;;;;5072314;28;20111;-56
2023/07/17 02:56:09;;;;;;;10.23;3.13;;;15.20;99.90;;;;;;5070582;28;20086;-56
2023/07/17 02:58:41;;;;;;;6.93;2.38;;;15.20;99.90;;;;;;5072363;28;20040;-56
2023/07/17 03:01:06;;;;;;;8.40;3.45;;;15.20;99.90;;;;;;5071960;28;20056;-56
2023/07/17 03:03:32;;;;;;;11.95;3.15;;;15.30;99.90;;;;;;5072242;28;20503;-56
2023/07/17 03:05:57;;;;;;;12.13;3.38;;;15.20;99.90;;;;;;5071944;28;20044;-56
2023/07/17 03:08:23;;;;;;;12.10;3.05;;;15.20;99.90;;;;;;5072035;28;20079;-56
2023/07/17 03:10:49;;;;;;;11.30;3.58;;;15.20;99.90;;;;;;5072318;28;20059;-56
2023/07/17 03:13:14;;;;;;;12.65;4.10;;;15.20;99.90;;;;;;5072056;28;20066;-56
2023/07/17 03:15:40;;;;;;;10.38;4.03;;;15.20;99.90;;;;;;5072153;28;20080;-56
2023/07/17 03:18:06;;;;;;;8.23;3.17;;;15.20;99.90;;;;;;5071912;28;20044;-56
2023/07/17 03:20:34;;;;;;;8.30;3.25;;;15.20;99.90;;;;;;5072036;28;20388;-56
2023/07/17 03:22:59;;;;;;;6.30;3.20;;;15.20;99.90;;;;;;5071630;28;20115;-57
2023/07/17 03:25:25;;;;;;;12.98;3.35;;;15.20;99.90;;;;;;5071785;28;20550;-56
2023/07/17 03:27:51;;;;;;;7.78;2.88;;;15.20;99.90;;;;;;5072161;28;20047;-56
2023/07/17 03:30:16;;;;;;;7.18;2.75;;;15.20;99.90;;;;;;5071562;28;20360;-56
2023/07/17 03:32:42;;;;;;;9.57;3.40;;;15.20;99.90;;;;;;5071744;28;20039;-57
2023/07/17 03:35:08;;;;;;;8.77;3.22;;;15.20;99.90;;;;;;5071626;28;20434;-56
2023/07/17 03:37:33;;;;;;;9.77;2.60;;;15.20;99.90;;;;;;5071584;28;20458;-56
2023/07/17 03:39:59;;;;;;;6.38;2.75;;;15.10;99.90;;;;;;5071469;28;20036;-56
2023/07/17 03:42:25;;;;;;;8.65;2.92;;;15.20;99.90;;;;;;5071922;28;20120;-56
2023/07/17 03:44:51;;;;;;;8.50;2.63;;;15.20;99.90;;;;;;5071609;28;20115;-56
2023/07/17 03:47:16;;;;;;;10.15;2.58;;;15.10;99.90;;;;;;5071566;28;20040;-56
2023/07/17 03:49:42;;;;;;;10.50;2.92;;;15.20;99.90;;;;;;5072019;28;20128;-57
2023/07/17 03:52:07;;;;;;;11.25;3.75;;;15.10;99.90;;;;;;5075619;28;20032;-56
2023/07/17 03:54:33;;;;;;;8.40;2.95;;;15.10;99.90;;;;;;5076112;28;20032;-56
2023/07/17 03:56:59;;;;;;;7.90;2.60;;;15.10;99.90;;;;;;5075430;28;20041;-56
2023/07/17 03:59:25;;;;;;;8.63;2.42;;;15.10;99.90;;;;;;5075223;28;20384;-56
2023/07/17 04:01:51;;;;;;;5.38;2.10;;;15.10;99.90;;;;;;5073988;28;20064;-56
2023/07/17 04:04:17;;;;;;;6.85;3.20;;;15.10;99.90;;;;;;5075811;28;20116;-56
2023/07/17 04:06:43;;;;;;;9.57;2.30;;;15.10;99.90;;;;;;5075452;28;20533;-56
2023/07/17 04:09:09;;;;;;;8.02;2.05;;;15.00;99.90;;;;;;5074473;28;20039;-57
2023/07/17 04:11:35;;;;;;;11.35;2.85;;;15.00;99.90;;;;;;5075704;28;20415;-56
2023/07/17 04:14:00;;;;;;;6.35;2.08;;;15.00;99.90;;;;;;5075329;28;20166;-56
2023/07/17 04:16:26;;;;;;;10.73;2.80;;;15.00;99.90;;;;;;5075209;28;20093;-56
2023/07/17 04:18:52;;;;;;;9.13;2.97;;;15.00;99.90;;;;;;5075245;28;20068;-57
2023/07/17 04:21:18;;;;;;;7.15;2.60;;;15.00;99.90;;;;;;5075011;28;20044;-56
2023/07/17 04:23:48;;;;;;;8.02;2.75;;;15.00;99.90;;;;;;5075353;28;20037;-56
2023/07/17 04:26:14;;;;;;;11.07;3.05;;;15.10;99.90;;;;;;5074897;28;20040;-56
2023/07/17 04:28:40;;;;;;;7.70;2.65;;;15.10;99.90;;;;;;5074679;28;20029;-56
2023/07/17 04:31:05;;;;;;;11.55;3.17;;;15.10;99.90;;;;;;5074843;28;20060;-56
2023/07/17 04:33:32;;;;;;;8.75;2.83;;;15.10;99.90;;;;;;5074763;28;20068;-56
2023/07/17 04:35:58;;;;;;;9.45;2.80;;;15.20;99.90;;;;;;5074578;28;20048;-56
2023/07/17 04:38:23;;;;;;;8.02;2.63;;;15.20;99.90;;;;;;5075141;28;20032;-56
2023/07/17 04:40:49;;;;;;;12.70;3.38;;;15.20;99.90;;;;;;5074912;28;20479;-56
2023/07/17 04:43:15;;;;;;;11.32;4.18;;;15.30;99.90;;;;;;5074728;28;20107;-57
2023/07/17 04:45:42;;;;;;;9.60;2.78;;;15.30;99.90;;;;;;5074598;28;20506;-56
2023/07/17 04:48:07;;;;;;;6.88;2.45;;;15.40;99.90;;;;;;5061156;28;20037;-57
2023/07/17 04:50:33;;;;;;;12.18;2.90;;;15.40;99.90;;;;;;5072566;28;20494;-57
2023/07/17 04:52:59;;;;;;;12.82;2.70;;;15.50;99.90;;;;;;5074854;28;20039;-56
2023/07/17 04:55:24;;;;;;;7.90;2.83;;;15.50;99.90;;;;;;5073179;28;20040;-57
2023/07/17 04:57:50;;;;;;;11.77;3.20;;;15.60;99.90;;;;;;5074399;28;20037;-56
2023/07/17 05:00:16;;;;;;;11.63;3.13;;;15.60;99.90;;;;;;5074304;28;20084;-56
2023/07/17 05:02:42;;;;;;;12.07;2.92;;;15.70;99.90;;;;;;5074417;28;20036;-56
2023/07/17 05:05:08;;;;;;;12.85;3.00;;;15.80;99.90;;;;;;5074156;28;20043;-57
2023/07/17 05:07:34;;;;;;;10.77;2.85;;;15.80;99.90;;;;;;5074447;28;20040;-57
2023/07/17 05:09:59;;;;;;;10.38;2.80;;;15.90;99.90;;;;;;5074684;28;20115;-57
2023/07/17 05:12:25;;;;;;;11.20;2.95;;;16.00;99.90;;;;;;5074220;28;20151;-57
2023/07/17 05:14:51;;;;;;;8.13;2.78;;;16.00;99.90;;;;;;5074165;28;20036;-57
2023/07/17 05:17:16;;;;;;;7.70;2.72;;;16.00;99.90;;;;;;5074020;28;20457;-57
2023/07/17 05:19:45;;;;;;;16.20;3.30;;;16.10;99.90;;;;;;5074147;28;20111;-57
2023/07/17 05:22:10;;;;;;;9.63;2.75;;;16.20;99.90;;;;;;5074167;28;20067;-57
2023/07/17 05:24:36;;;;;;;18.17;3.92;;;16.30;99.90;;;;;;5073877;28;20045;-57
2023/07/17 05:27:02;;;;;;;11.02;3.08;;;16.30;99.90;;;;;;5073673;28;20399;-57
2023/07/17 05:29:28;;;;;;;15.35;3.90;;;16.40;99.90;;;;;;5073982;28;20108;-57
2023/07/17 05:31:53;;;;;;;13.45;3.03;;;16.50;99.90;;;;;;5073674;28;20119;-57
2023/07/17 05:34:19;;;;;;;14.48;4.30;;;16.50;99.90;;;;;;5073882;28;20044;-56
2023/07/17 05:36:45;;;;;;;8.27;2.70;;;16.50;99.90;;;;;;5073665;28;20033;-57
2023/07/17 05:39:10;;;;;;;10.52;3.10;;;16.70;99.90;;;;;;5073385;28;20037;-57
2023/07/17 05:41:36;;;;;;;10.98;2.70;;;16.80;99.90;;;;;;5073751;28;20120;-57
2023/07/17 05:44:01;;;;;;;9.05;3.63;;;16.80;99.90;;;;;;5072580;28;21281;-58
2023/07/17 05:46:27;;;;;;;10.38;3.50;;;16.90;99.90;;;;;;5073853;28;20444;-57
2023/07/17 05:48:53;;;;;;;16.13;4.22;;;17.00;99.90;;;;;;5073386;28;20043;-58
2023/07/17 05:51:18;;;;;;;17.23;4.00;;;17.20;99.90;;;;;;5073489;28;20041;-57
2023/07/17 05:53:44;;;;;;;14.25;3.88;;;17.30;99.90;;;;;;5073625;28;20479;-57
2023/07/17 05:56:11;;;;;;;10.93;3.45;;;17.40;99.90;;;;;;5073588;28;20081;-57
2023/07/17 05:58:37;;;;;;;11.48;3.78;;;17.40;99.90;;;;;;5073427;28;20478;-57
2023/07/17 06:01:03;;;;;;;10.18;3.13;;;17.50;99.90;;;;;;5073237;28;20525;-57
2023/07/17 06:03:29;;;;;;;11.88;4.18;;;17.50;99.90;;;;;;5073443;28;20036;-56
2023/07/17 06:05:54;;;;;;;18.75;3.63;;;17.50;99.90;;;;;;5073238;28;20051;-57
2023/07/17 06:08:20;;;;;;;11.25;3.67;;;17.60;99.90;;;;;;5073365;28;20127;-57
2023/07/17 06:10:46;;;;;;;11.40;3.58;;;17.70;99.90;;;;;;5072912;28;20478;-57
2023/07/17 06:13:13;;;;;;;12.23;3.47;;;17.80;99.90;;;;;;5072413;28;20086;-57
2023/07/17 06:15:39;;;;;;;9.80;3.45;;;17.90;99.90;;;;;;5073023;28;20036;-57
2023/07/17 06:18:05;;;;;;;10.57;3.55;;;18.00;99.90;;;;;;5073020;28;20040;-57
2023/07/17 06:20:30;;;;;;;15.23;4.20;;;18.00;99.90;;;;;;5072791;28;20039;-57
2023/07/17 06:22:56;;;;;;;10.57;3.67;;;18.10;99.90;;;;;;5073264;28;20505;-57
2023/07/17 06:25:21;;;;;;;12.35;4.20;;;18.20;99.90;;;;;;5072998;28;20044;-57
2023/07/17 06:27:47;;;;;;;16.83;4.50;;;18.30;99.90;;;;;;5072751;28;20391;-58
2023/07/17 06:30:13;;;;;;;13.60;4.80;;;18.30;99.90;;;;;;5073490;28;20372;-57
2023/07/17 06:32:39;;;;;;;15.43;4.60;;;18.40;99.90;;;;;;5071521;28;20495;-57
2023/07/17 06:35:07;;;;;;;11.93;4.40;;;18.50;99.90;;;;;;5072668;28;20059;-56
2023/07/17 06:37:33;;;;;;;;;;;18.60;99.90;;;;;;5073178;28;20044;-57
2023/07/17 06:39:59;;;;;;;8.23;3.85;;;18.50;99.90;;;;;;5072492;28;19920;-57
2023/07/17 06:42:24;;;;;;;10.70;3.83;;;18.70;99.90;;;;;;5072669;28;20063;-57
2023/07/17 06:44:50;;;;;;;12.43;4.10;;;18.80;99.90;;;;;;5072320;28;20044;-57
2023/07/17 06:47:15;;;;;;;12.80;4.28;;;19.00;99.90;;;;;;5065980;28;20403;-57
2023/07/17 06:49:41;;;;;;;14.18;5.07;;;18.90;99.90;;;;;;5067239;28;20379;-58
2023/07/17 06:52:07;;;;;;;14.73;4.68;;;18.80;99.90;;;;;;5072277;28;20040;-58
2023/07/17 06:54:33;;;;;;;15.55;4.30;;;18.90;99.90;;;;;;5072323;28;20040;-58
2023/07/17 06:56:59;;;;;;;14.40;4.65;;;18.90;99.90;;;;;;5070293;28;20055;-57
2023/07/17 06:59:28;;;;;;;15.68;4.80;;;18.90;99.90;;;;;;5070689;28;20082;-57
2023/07/17 07:01:54;;;;;;;12.90;4.40;;;18.90;99.90;;;;;;5072522;28;20398;-57
2023/07/17 07:04:20;;;;;;;13.68;4.80;;;18.70;99.90;;;;;;5072259;28;20070;-57
2023/07/17 07:06:46;;;;;;;14.55;4.80;;;18.60;99.90;;;;;;5072082;28;20068;-57
2023/07/17 07:09:12;;;;;;;17.58;5.15;;;18.50;99.90;;;;;;5070959;28;20436;-57
2023/07/17 07:11:38;;;;;;;15.77;5.55;;;18.20;99.90;;;;;;5072133;28;20079;-56
2023/07/17 07:14:04;;;;;;;12.02;5.10;;;18.10;99.90;;;;;;5071819;28;20068;-57
2023/07/17 07:16:29;;;;;;;13.68;5.40;;;18.00;99.90;;;;;;5072094;28;20079;-57
2023/07/17 07:18:55;;;;;;;11.25;5.03;;;17.90;99.90;;;;;;5070416;28;20049;-57
2023/07/17 07:21:20;;;;;;;12.48;4.80;;;17.90;99.90;;;;;;5072111;28;20101;-56
2023/07/17 07:23:46;;;;;;;10.15;4.32;;;17.80;99.90;;;;;;5072127;28;20070;-56
2023/07/17 07:26:12;;;;;;;9.57;3.45;;;17.70;99.90;;;;;;5070377;28;20052;-56
2023/07/17 07:28:37;;;;;;;7.95;3.30;;;17.50;99.90;;;;;;5071768;28;20471;-56
2023/07/17 07:31:03;;;;;;;7.97;3.38;;;17.40;99.90;;;;;;5071125;28;20122;-56
2023/07/17 07:33:29;;;;;;;11.07;3.75;;;17.20;99.90;;;;;;5070387;28;20395;-57
2023/07/17 07:35:54;;;;;;;10.95;3.50;;;17.00;99.90;;;;;;5071980;28;20033;-57
2023/07/17 07:38:20;;;;;;;11.70;4.28;;;16.90;99.90;;;;;;5071700;28;20032;-57
2023/07/17 07:40:46;;;;;;;10.23;3.42;;;16.80;99.90;;;;;;5071657;28;20394;-57
2023/07/17 07:43:11;;;;;;;9.98;4.20;;;16.90;99.90;;;;;;5071900;28;20044;-55
2023/07/17 07:45:37;;;;;;;10.35;4.32;;;16.90;99.90;;;;;;5071272;28;20044;-56
2023/07/17 07:48:03;;;;;;;10.88;4.18;;;17.10;99.90;;;;;;5071545;28;20041;-57
2023/07/17 07:50:28;;;;;;;12.77;4.03;;;17.40;99.90;;;;;;5071637;28;20063;-56
2023/07/17 07:52:57;;;;;;;9.05;3.83;;;17.70;99.90;;;;;;5071734;28;20390;-57
2023/07/17 07:55:23;;;;;;;10.35;4.03;;;17.90;99.90;;;;;;5071306;28;20037;-57
2023/07/17 07:57:49;;;;;;;16.00;4.63;;;18.10;99.90;;;;;;5071494;28;20043;-56
2023/07/17 08:00:15;;;;;;;9.82;4.80;;;18.40;99.90;;;;;;5070993;28;20106;-57
2023/07/17 08:02:42;;;;;;;14.60;4.53;;;18.60;99.90;;;;;;5071616;28;20068;-57
2023/07/17 08:05:09;;;;;;;17.52;4.65;;;18.70;99.90;;;;;;5071670;28;20435;-57
2023/07/17 08:07:35;;;;;;;21.58;5.85;;;18.70;99.90;;;;;;5071394;28;20063;-57
2023/07/17 08:10:01;;;;;;;14.43;4.95;;;18.60;99.90;;;;;;5071092;28;20037;-57
2023/07/17 08:12:27;;;;;;;9.05;4.30;;;18.80;99.90;;;;;;5071943;28;20518;-57
2023/07/17 08:14:53;;;;;;;10.48;3.95;;;18.90;99.90;;;;;;5071332;28;20482;-57
2023/07/17 08:17:19;;;;;;;10.40;3.85;;;19.10;99.90;;;;;;5071714;28;20092;-57
2023/07/17 08:19:44;;;;;;;13.50;4.38;;;19.30;99.90;;;;;;5071653;28;20079;-57
2023/07/17 08:22:10;;;;;;;13.48;4.30;;;19.40;99.90;;;;;;5071348;28;20044;-57
2023/07/17 08:24:36;;;;;;;14.68;3.80;;;19.40;99.90;;;;;;5071381;28;20102;-58
2023/07/17 08:27:01;;;;;;;10.30;3.72;;;19.50;99.90;;;;;;5071228;28;20049;-58
2023/07/17 08:29:27;;;;;;;11.27;3.85;;;19.60;99.90;;;;;;5071539;28;20057;-58
2023/07/17 08:31:53;;;;;;;9.73;4.25;;;19.60;99.90;;;;;;5070940;28;20058;-57
2023/07/17 08:34:20;;;;;;;8.20;3.28;;;19.80;99.90;;;;;;5069673;28;20040;-57
2023/07/17 08:36:46;;;;;;;9.27;3.78;;;19.90;99.90;;;;;;5072773;28;20044;-57
2023/07/17 08:39:12;;;;;;;9.73;3.65;;;20.10;99.90;;;;;;5074495;28;20040;-57
2023/07/17 08:41:41;;;;;;;11.65;3.63;;;20.20;99.90;;;;;;5074289;28;20043;-58
2023/07/17 08:44:07;;;;;;;11.55;3.92;;;20.10;99.90;;;;;;5072577;28;20045;-58
2023/07/17 08:46:33;;;;;;;10.57;3.55;;;19.90;99.90;;;;;;5072935;28;20048;-58
2023/07/17 08:49:01;;;;;;;9.68;2.88;;;19.70;99.90;;;;;;5054599;28;20112;-57
2023/07/17 08:51:28;;;;;;;9.30;3.45;;;19.50;99.90;;;;;;5054382;28;20404;-58
2023/07/17 08:53:56;;;;;;;6.95;3.40;;;19.50;99.90;;;;;;5054038;28;20044;-58
2023/07/17 08:56:22;;;;;;;;;;;19.50;99.90;;;;;;5056819;28;20395;-58
2023/07/17 08:58:51;;;;;;;11.98;3.45;;;19.50;99.90;;;;;;5054329;28;19917;-58
2023/07/17 09:01:17;;;;;;;12.30;3.40;;;19.50;99.90;;;;;;5053847;28;20049;-58
2023/07/17 09:03:43;;;;;;;13.10;3.15;;;19.70;99.90;;;;;;5054091;28;20390;-58
2023/07/17 09:06:13;;;;;;;7.63;2.47;;;20.00;99.90;;;;;;5062556;28;20120;-57
2023/07/17 09:08:39;;;;;;;9.00;2.63;;;20.10;99.90;;;;;;5073210;28;20116;-58
2023/07/17 09:11:06;;;;;;;7.72;2.42;;;20.30;99.90;;;;;;5066978;28;20119;-57
2023/07/17 09:13:39;;;;;;;10.90;3.00;;;20.40;99.90;;;;;;5073183;28;20043;-58
2023/07/17 09:16:31;;;;;;;8.93;2.78;;;20.30;99.90;;;;;;5060359;28;20040;-57
2023/07/17 09:18:57;;;;;;;6.88;2.03;;;20.40;99.90;;;;;;5072056;28;20102;-58
2023/07/17 09:21:24;;;;;;;11.57;2.75;;;20.30;99.90;;;;;;5072441;28;20067;-57
2023/07/17 09:23:53;;;;;;;8.20;2.88;;;20.10;99.90;;;;;;5061671;28;20120;-60
2023/07/17 09:26:21;;;;;;;9.63;2.95;;;20.30;99.90;;;;;;5053666;28;20033;-58
2023/07/17 09:28:49;;;;;;;10.73;2.83;;;20.40;99.90;;;;;;5059056;28;20483;-58
2023/07/17 09:31:25;;;;;;;9.82;2.75;;;20.30;99.90;;;;;;5073914;28;20874;-59
2023/07/17 09:33:58;;;;;;;11.40;2.42;;;20.10;99.90;;;;;;5073792;28;20034;-59
2023/07/17 09:36:23;;;;;;;5.95;2.13;;;20.10;99.90;;;;;;5074163;28;20044;-59
2023/07/17 09:38:57;;;;;;;7.40;2.05;;;21.20;99.90;;;;;;5073626;28;20463;-60
2023/07/17 09:41:24;;;;;;;22.30;3.35;;;21.30;99.90;;;;;;5073821;28;20045;-59
2023/07/17 09:44:01;;;;;;;6.03;2.40;;;21.20;99.90;;;;;;5073554;28;20483;-59
2023/07/17 09:46:27;;;;;;;7.90;2.33;;;20.90;99.90;;;;;;5073632;28;20079;-60
2023/07/17 09:48:54;;;;;;;14.25;2.95;;;21.20;99.90;;;;;;5072335;28;20036;-58
2023/07/17 09:51:21;;;;;;;7.78;2.17;;;21.40;99.90;;;;;;5073432;28;20032;-58
2023/07/17 09:53:47;;;;;;;8.40;2.03;;;21.20;99.90;;;;;;5073254;28;20505;-59
2023/07/17 09:56:20;;;;;;;3.47;1.73;;;21.80;99.90;;;;;;5073505;28;20444;-58
2023/07/17 09:58:48;;;;;;;11.02;2.30;;;22.00;99.90;;;;;;5073240;28;20029;-58
2023/07/17 10:01:25;;;;;;;13.68;2.08;;;21.80;99.90;;;;;;5072961;28;20584;-58
2023/07/17 10:03:51;;;;;;;15.43;2.70;;;21.60;99.90;;;;;;5073050;28;20560;-59
2023/07/17 10:06:20;;;;;;;6.97;2.40;;;21.90;99.90;;;;;;5073240;28;20045;-58
2023/07/17 10:08:47;;;;;;;;;;;22.10;99.90;;;;;;5073461;28;20032;-59
2023/07/17 10:11:17;;;;;;;17.48;2.92;;;21.80;99.90;;;;;;5073038;28;19917;-59
2023/07/17 10:13:44;;;;;;;12.48;2.60;;;21.50;99.90;;;;;;5073280;28;20044;-58
2023/07/17 10:16:12;;;;;;;10.10;2.78;;;21.40;99.90;;;;;;5073179;28;20032;-59
2023/07/17 10:18:49;;;;;;;7.10;2.20;;;21.30;99.90;;;;;;5073119;28;20055;-58
2023/07/17 10:21:17;;;;;;;9.85;2.40;;;21.20;99.90;;;;;;5072728;28;20047;-59
2023/07/17 10:23:44;;;;;;;11.07;2.53;;;21.60;99.90;;;;;;5071630;28;20394;-58
2023/07/17 10:26:11;;;;;;;10.13;3.22;;;21.50;99.90;;;;;;5072593;28;20352;-58
2023/07/17 10:28:38;;;;;;;8.63;2.55;;;21.20;99.90;;;;;;5072659;28;20024;-59
2023/07/17 10:31:23;;;;;;;9.05;2.88;;;21.00;99.90;;;;;;5072861;28;20060;-58
2023/07/17 10:33:51;;;;;;;5.60;1.95;;;21.60;99.90;;;;;;5070119;28;20040;-58
2023/07/17 10:36:18;;;;;;;6.05;2.17;;;21.60;99.90;;;;;;5073092;28;20086;-58
2023/07/17 10:38:52;;;;;;;7.72;2.45;;;21.50;99.90;;;;;;5072349;28;20559;-60
2023/07/17 10:41:17;;;;;;;6.22;1.92;;;21.50;99.90;;;;;;5072424;28;20040;-60
2023/07/17 10:43:55;;;;;;;5.93;1.92;;;21.50;99.90;;;;;;5072269;28;20044;-59
2023/07/17 10:46:28;;;;;;;11.48;2.38;;;21.50;99.90;;;;;;5072272;28;20506;-58
2023/07/17 10:49:11;;;;;;;8.10;2.25;;;21.70;99.90;;;;;;5072211;28;20040;-60
2023/07/17 10:51:45;;;;;;;6.35;2.55;;;21.50;99.90;;;;;;5072498;28;20082;-59
2023/07/17 10:54:16;;;;;;;15.80;2.90;;;21.40;99.90;;;;;;5072477;28;20040;-58
2023/07/17 10:56:45;;;;;;;7.82;2.00;;;21.20;99.90;;;;;;5072129;28;20407;-59
2023/07/17 10:59:11;;;;;;;6.53;2.13;;;21.40;99.90;;;;;;5071884;28;20523;-58
2023/07/17 11:01:37;;;;;;;5.80;2.15;;;21.90;99.90;;;;;;5071883;28;20102;-60
2023/07/17 11:04:07;;;;;;;14.32;2.92;;;22.30;99.90;;;;;;5072233;28;20044;-59
2023/07/17 11:06:33;;;;;;;8.70;2.40;;;22.20;99.90;;;;;;5072051;28;20044;-59
2023/07/17 11:08:59;;;;;;;7.85;2.17;;;21.80;99.90;;;;;;5071997;28;20032;-60
2023/07/17 11:11:25;;;;;;;5.88;2.50;;;22.10;99.90;;;;;;5072186;28;20116;-59
2023/07/17 11:13:52;;;;;;;11.13;2.20;;;21.60;99.90;;;;;;5069399;28;20096;-60
2023/07/17 11:16:20;;;;;;;12.02;2.40;;;22.00;99.90;;;;;;5060827;28;20371;-58
2023/07/17 11:18:48;;;;;;;6.15;2.22;;;22.30;99.90;;;;;;5051979;28;20041;-58
2023/07/17 11:21:21;;;;;;;7.45;1.80;;;23.10;99.90;;;;;;5068032;28;20544;-59
2023/07/17 11:23:53;;;;;;;4.88;2.17;;;22.50;99.90;;;;;;5071882;28;20044;-59
2023/07/17 11:26:28;;;;;;;4.88;2.08;;;22.60;99.90;;;;;;5053140;28;20822;-60
2023/07/17 11:28:57;;;;;;;3.08;1.73;;;22.50;99.90;;;;;;5071884;28;20070;-58
2023/07/17 11:31:27;;;;;;;10.98;3.20;;;23.40;99.90;;;;;;5072015;28;20040;-59
2023/07/17 11:33:58;;;;;;;11.50;2.40;;;23.50;99.90;;;;;;5068946;28;20035;-60
2023/07/17 11:36:41;;;;;;;9.05;2.22;;;23.70;99.90;;;;;;5057202;28;20099;-59
2023/07/17 11:39:21;;;;;;;6.00;2.20;;;22.90;99.90;;;;;;5051387;28;20045;-58
2023/07/17 11:41:52;;;;;;;6.43;2.30;;;22.50;99.90;;;;;;5051109;28;20442;-59
2023/07/17 11:44:29;;;;;;;11.88;2.40;;;22.80;99.90;;;;;;5051314;28;20079;-59
2023/07/17 11:47:01;;;;;;;19.10;2.53;;;22.80;99.90;;;;;;5063208;28;20045;-57
2023/07/17 11:49:28;;;;;;;8.77;1.98;;;22.60;99.90;;;;;;5051344;28;20041;-58
2023/07/17 11:51:55;;;;;;;7.60;2.35;;;22.80;99.90;;;;;;5060509;28;20047;-58
2023/07/17 11:54:20;;;;;;;26.98;5.13;;;23.50;99.90;;;;;;5063033;28;20120;-59
2023/07/17 11:56:47;;;;;;;25.38;4.38;;;23.50;99.90;;;;;;5051644;28;20191;-58
2023/07/17 11:59:24;;;;;;;7.43;2.47;;;23.60;99.90;;;;;;5059235;28;20051;-59
2023/07/17 12:01:50;;;;;;;15.00;3.28;;;24.00;99.90;;;;;;5071432;28;20096;-60
2023/07/17 12:04:23;;;;;;;7.53;2.00;;;24.70;99.90;;;;;;5071613;28;20495;-60
2023/07/17 12:06:49;;;;;;;9.63;2.08;;;24.30;99.90;;;;;;5071432;28;20390;-62
2023/07/17 12:09:16;;;;;;;8.57;2.00;;;23.90;99.90;;;;;;5071342;28;20090;-59
2023/07/17 12:11:45;;;;;;;5.50;1.70;;;23.50;99.90;;;;;;5073191;28;20041;-60
2023/07/17 12:14:13;;;;;;;9.98;2.50;;;22.80;99.90;;;;;;5075398;28;20037;-59
2023/07/17 12:16:39;;;;;;;6.20;2.07;;;21.90;99.90;;;;;;5075075;28;20041;-57
2023/07/17 12:19:04;;;;;;;4.55;2.25;;;21.50;99.90;;;;;;5070057;28;20284;-58
2023/07/17 12:21:30;;;;;;;7.05;2.40;;;21.90;99.90;;;;;;5055076;28;20047;-58
2023/07/17 12:23:56;;;;;;;11.60;2.55;;;22.40;99.90;;;;;;5055024;28;20091;-59
2023/07/17 12:26:21;;;;;;;6.78;2.25;;;22.50;99.90;;;;;;5055134;28;20132;-58
2023/07/17 12:28:47;;;;;;;5.80;2.40;;;22.40;99.90;;;;;;5058135;28;20418;-57
2023/07/17 12:31:13;;;;;;;6.20;2.60;;;22.70;99.90;;;;;;5074894;28;20044;-59
2023/07/17 12:33:38;;;;;;;6.22;2.25;;;22.80;99.90;;;;;;5073928;28;20066;-58
2023/07/17 12:36:04;;;;;;;7.70;2.42;;;23.20;99.90;;;;;;5074962;28;20076;-59
2023/07/17 12:38:29;;;;;;;6.38;2.13;;;23.30;99.90;;;;;;5074531;28;20045;-58
2023/07/17 12:40:55;;;;;;;6.40;2.10;;;23.50;99.90;;;;;;5074845;28;20155;-58